sensor_id;sensor_type;location;lat;lon;timestamp;P1;durP1;ratioP1;P2;durP2;ratioP2
789;SDS011;378;48.844;9.156;2023-07-08T00:01:11;14.70;;;5.93;;
789;SDS011;378;48.844;9.156;2023-07-08T00:03:38;12.02;;;5.97;;
789;SDS011;378;48.844;9.156;2023-07-08T00:06:07;14.18;;;5.53;;
789;SDS011;378;48.844;9.156;2023-07-08T00:08:37;12.50;;;6.00;;
789;SDS011;378;48.844;9.156;2023-07-08T00:11:08;10.93;;;5.82;;
789;SDS011;378;48.844;9.156;2023-07-08T00:13:36;11.05;;;6.10;;
789;SDS011;378;48.844;9.156;2023-07-08T00:16:04;10.38;;;5.68;;
789;SDS011;378;48.844;9.156;2023-07-08T00:18:34;14.57;;;5.72;;
789;SDS011;378;48.844;9.156;2023-07-08T00:21:01;10.98;;;5.85;;
789;SDS011;378;48.844;9.156;2023-07-08T00:23:28;11.18;;;5.82;;
789;SDS011;378;48.844;9.156;2023-07-08T00:25:55;9.55;;;5.22;;
789;SDS011;378;48.844;9.156;2023-07-08T00:28:23;13.32;;;6.10;;
789;SDS011;378;48.844;9.156;2023-07-08T00:30:50;11.85;;;6.13;;
789;SDS011;378;48.844;9.156;2023-07-08T00:33:18;10.77;;;5.32;;
789;SDS011;378;48.844;9.156;2023-07-08T00:35:45;11.65;;;5.80;;
789;SDS011;378;48.844;9.156;2023-07-08T00:38:13;14.45;;;6.43;;
789;SDS011;378;48.844;9.156;2023-07-08T00:40:51;11.48;;;6.32;;
789;SDS011;378;48.844;9.156;2023-07-08T00:43:28;13.10;;;6.07;;
789;SDS011;378;48.844;9.156;2023-07-08T00:46:01;13.40;;;6.50;;
789;SDS011;378;48.844;9.156;2023-07-08T00:48:39;13.52;;;5.95;;
789;SDS011;378;48.844;9.156;2023-07-08T00:51:07;13.35;;;5.90;;
789;SDS011;378;48.844;9.156;2023-07-08T00:53:37;10.77;;;5.70;;
789;SDS011;378;48.844;9.156;2023-07-08T00:56:06;11.43;;;5.85;;
789;SDS011;378;48.844;9.156;2023-07-08T00:58:38;12.98;;;6.13;;
789;SDS011;378;48.844;9.156;2023-07-08T01:01:09;10.98;;;5.45;;
789;SDS011;378;48.844;9.156;2023-07-08T01:03:38;12.50;;;6.45;;
789;SDS011;378;48.844;9.156;2023-07-08T01:06:11;13.18;;;5.88;;
789;SDS011;378;48.844;9.156;2023-07-08T01:08:39;11.02;;;5.75;;
789;SDS011;378;48.844;9.156;2023-07-08T01:11:05;11.73;;;5.82;;
789;SDS011;378;48.844;9.156;2023-07-08T01:13:40;10.80;;;5.90;;
789;SDS011;378;48.844;9.156;2023-07-08T01:16:12;10.85;;;5.55;;
789;SDS011;378;48.844;9.156;2023-07-08T01:18:40;11.00;;;5.78;;
789;SDS011;378;48.844;9.156;2023-07-08T01:23:56;15.95;;;6.38;;
789;SDS011;378;48.844;9.156;2023-07-08T01:26:23;10.45;;;6.05;;
789;SDS011;378;48.844;9.156;2023-07-08T01:28:51;11.20;;;6.25;;
789;SDS011;378;48.844;9.156;2023-07-08T01:31:19;11.95;;;5.97;;
789;SDS011;378;48.844;9.156;2023-07-08T01:33:48;11.95;;;5.85;;
789;SDS011;378;48.844;9.156;2023-07-08T01:36:16;11.07;;;6.35;;
789;SDS011;378;48.844;9.156;2023-07-08T01:38:43;12.68;;;6.57;;
789;SDS011;378;48.844;9.156;2023-07-08T01:41:13;15.10;;;6.38;;
789;SDS011;378;48.844;9.156;2023-07-08T01:43:41;10.18;;;5.53;;
789;SDS011;378;48.844;9.156;2023-07-08T01:46:10;10.80;;;5.82;;
789;SDS011;378;48.844;9.156;2023-07-08T01:48:40;14.57;;;6.38;;
789;SDS011;378;48.844;9.156;2023-07-08T01:51:10;12.40;;;6.05;;
789;SDS011;378;48.844;9.156;2023-07-08T01:53:39;13.13;;;6.00;;
789;SDS011;378;48.844;9.156;2023-07-08T01:56:07;14.60;;;6.35;;
789;SDS011;378;48.844;9.156;2023-07-08T01:58:37;10.68;;;5.85;;
789;SDS011;378;48.844;9.156;2023-07-08T02:01:04;10.43;;;5.57;;
789;SDS011;378;48.844;9.156;2023-07-08T02:03:31;10.32;;;5.40;;
789;SDS011;378;48.844;9.156;2023-07-08T02:05:58;10.73;;;5.63;;
789;SDS011;378;48.844;9.156;2023-07-08T02:08:25;11.10;;;5.15;;
789;SDS011;378;48.844;9.156;2023-07-08T02:10:52;11.27;;;6.20;;
789;SDS011;378;48.844;9.156;2023-07-08T02:13:23;10.50;;;5.75;;
789;SDS011;378;48.844;9.156;2023-07-08T02:15:52;10.10;;;5.90;;
789;SDS011;378;48.844;9.156;2023-07-08T02:18:18;13.68;;;5.68;;
789;SDS011;378;48.844;9.156;2023-07-08T02:20:45;14.15;;;5.90;;
789;SDS011;378;48.844;9.156;2023-07-08T02:23:13;13.05;;;6.22;;
789;SDS011;378;48.844;9.156;2023-07-08T02:25:40;9.35;;;5.03;;
789;SDS011;378;48.844;9.156;2023-07-08T02:28:07;11.27;;;6.40;;
789;SDS011;378;48.844;9.156;2023-07-08T02:30:34;14.07;;;5.88;;
789;SDS011;378;48.844;9.156;2023-07-08T02:33:03;12.77;;;5.72;;
789;SDS011;378;48.844;9.156;2023-07-08T02:35:30;10.75;;;5.63;;
789;SDS011;378;48.844;9.156;2023-07-08T02:37:57;13.32;;;5.95;;
789;SDS011;378;48.844;9.156;2023-07-08T02:40:24;9.57;;;5.03;;
789;SDS011;378;48.844;9.156;2023-07-08T02:42:51;10.45;;;5.90;;
789;SDS011;378;48.844;9.156;2023-07-08T02:45:18;12.60;;;6.30;;
789;SDS011;378;48.844;9.156;2023-07-08T02:47:45;9.38;;;5.22;;
789;SDS011;378;48.844;9.156;2023-07-08T02:50:13;11.77;;;5.88;;
789;SDS011;378;48.844;9.156;2023-07-08T02:52:42;12.05;;;6.32;;
789;SDS011;378;48.844;9.156;2023-07-08T02:55:09;11.43;;;6.18;;
789;SDS011;378;48.844;9.156;2023-07-08T02:57:35;10.95;;;5.38;;
789;SDS011;378;48.844;9.156;2023-07-08T03:00:03;10.75;;;5.88;;
789;SDS011;378;48.844;9.156;2023-07-08T03:02:31;11.38;;;6.57;;
789;SDS011;378;48.844;9.156;2023-07-08T03:04:58;9.85;;;5.75;;
789;SDS011;378;48.844;9.156;2023-07-08T03:07:27;15.38;;;6.43;;
789;SDS011;378;48.844;9.156;2023-07-08T03:09:54;12.57;;;6.07;;
789;SDS011;378;48.844;9.156;2023-07-08T03:12:21;15.43;;;6.35;;
789;SDS011;378;48.844;9.156;2023-07-08T03:14:47;12.60;;;6.45;;
789;SDS011;378;48.844;9.156;2023-07-08T03:17:14;12.52;;;6.15;;
789;SDS011;378;48.844;9.156;2023-07-08T03:19:43;14.25;;;6.47;;
789;SDS011;378;48.844;9.156;2023-07-08T03:22:10;11.40;;;6.10;;
789;SDS011;378;48.844;9.156;2023-07-08T03:24:38;15.63;;;6.57;;
789;SDS011;378;48.844;9.156;2023-07-08T03:27:11;13.05;;;6.57;;
789;SDS011;378;48.844;9.156;2023-07-08T03:29:38;12.52;;;6.47;;
789;SDS011;378;48.844;9.156;2023-07-08T03:32:06;12.43;;;5.78;;
789;SDS011;378;48.844;9.156;2023-07-08T03:34:34;15.27;;;6.32;;
789;SDS011;378;48.844;9.156;2023-07-08T03:37:01;11.05;;;5.90;;
789;SDS011;378;48.844;9.156;2023-07-08T03:39:28;11.32;;;6.10;;
789;SDS011;378;48.844;9.156;2023-07-08T03:41:58;12.30;;;5.88;;
789;SDS011;378;48.844;9.156;2023-07-08T03:44:24;14.68;;;6.63;;
789;SDS011;378;48.844;9.156;2023-07-08T03:46:51;12.63;;;6.70;;
789;SDS011;378;48.844;9.156;2023-07-08T03:49:19;11.70;;;6.07;;
789;SDS011;378;48.844;9.156;2023-07-08T03:51:48;12.48;;;6.55;;
789;SDS011;378;48.844;9.156;2023-07-08T03:54:18;10.25;;;6.13;;
789;SDS011;378;48.844;9.156;2023-07-08T03:56:46;12.85;;;6.47;;
789;SDS011;378;48.844;9.156;2023-07-08T03:59:14;13.25;;;6.30;;
789;SDS011;378;48.844;9.156;2023-07-08T04:01:41;12.98;;;6.13;;
789;SDS011;378;48.844;9.156;2023-07-08T04:04:08;12.85;;;6.68;;
789;SDS011;378;48.844;9.156;2023-07-08T04:06:38;10.98;;;5.70;;
789;SDS011;378;48.844;9.156;2023-07-08T04:09:04;15.93;;;6.20;;
789;SDS011;378;48.844;9.156;2023-07-08T04:11:32;11.05;;;5.95;;
789;SDS011;378;48.844;9.156;2023-07-08T04:13:58;15.48;;;5.68;;
789;SDS011;378;48.844;9.156;2023-07-08T04:16:28;9.80;;;5.75;;
789;SDS011;378;48.844;9.156;2023-07-08T04:18:56;13.52;;;6.88;;
789;SDS011;378;48.844;9.156;2023-07-08T04:21:24;15.38;;;6.38;;
789;SDS011;378;48.844;9.156;2023-07-08T04:23:51;13.32;;;6.40;;
789;SDS011;378;48.844;9.156;2023-07-08T04:26:18;13.50;;;7.18;;
789;SDS011;378;48.844;9.156;2023-07-08T04:28:45;14.68;;;6.75;;
789;SDS011;378;48.844;9.156;2023-07-08T04:31:13;14.52;;;6.82;;
789;SDS011;378;48.844;9.156;2023-07-08T04:33:41;13.43;;;6.43;;
789;SDS011;378;48.844;9.156;2023-07-08T04:36:09;13.60;;;6.82;;
789;SDS011;378;48.844;9.156;2023-07-08T04:38:39;16.05;;;6.60;;
789;SDS011;378;48.844;9.156;2023-07-08T04:41:07;12.75;;;6.82;;
789;SDS011;378;48.844;9.156;2023-07-08T04:43:33;12.18;;;6.20;;
789;SDS011;378;48.844;9.156;2023-07-08T04:46:00;11.80;;;6.43;;
789;SDS011;378;48.844;9.156;2023-07-08T04:48:27;14.07;;;6.25;;
789;SDS011;378;48.844;9.156;2023-07-08T04:50:56;15.85;;;6.80;;
789;SDS011;378;48.844;9.156;2023-07-08T04:53:23;14.45;;;6.28;;
789;SDS011;378;48.844;9.156;2023-07-08T04:55:51;11.77;;;6.35;;
789;SDS011;378;48.844;9.156;2023-07-08T04:58:21;15.30;;;6.57;;
789;SDS011;378;48.844;9.156;2023-07-08T05:00:48;15.02;;;6.57;;
789;SDS011;378;48.844;9.156;2023-07-08T05:03:15;12.63;;;6.07;;
789;SDS011;378;48.844;9.156;2023-07-08T05:05:42;10.60;;;6.18;;
789;SDS011;378;48.844;9.156;2023-07-08T05:08:11;10.13;;;5.47;;
789;SDS011;378;48.844;9.156;2023-07-08T05:10:38;14.13;;;6.57;;
789;SDS011;378;48.844;9.156;2023-07-08T05:13:05;12.52;;;6.65;;
789;SDS011;378;48.844;9.156;2023-07-08T05:15:32;14.60;;;6.53;;
789;SDS011;378;48.844;9.156;2023-07-08T05:18:00;13.38;;;6.57;;
789;SDS011;378;48.844;9.156;2023-07-08T05:20:27;17.40;;;6.45;;
789;SDS011;378;48.844;9.156;2023-07-08T05:22:56;14.15;;;6.70;;
789;SDS011;378;48.844;9.156;2023-07-08T05:25:24;11.32;;;6.20;;
789;SDS011;378;48.844;9.156;2023-07-08T05:27:52;15.93;;;7.22;;
789;SDS011;378;48.844;9.156;2023-07-08T05:30:19;13.27;;;6.78;;
789;SDS011;378;48.844;9.156;2023-07-08T05:32:46;18.30;;;6.93;;
789;SDS011;378;48.844;9.156;2023-07-08T05:35:13;14.88;;;6.40;;
789;SDS011;378;48.844;9.156;2023-07-08T05:37:40;14.48;;;6.85;;
789;SDS011;378;48.844;9.156;2023-07-08T05:40:10;15.98;;;7.00;;
789;SDS011;378;48.844;9.156;2023-07-08T05:42:38;13.40;;;6.38;;
789;SDS011;378;48.844;9.156;2023-07-08T05:45:05;15.25;;;6.70;;
789;SDS011;378;48.844;9.156;2023-07-08T05:47:32;13.32;;;6.65;;
789;SDS011;378;48.844;9.156;2023-07-08T05:49:59;14.00;;;6.90;;
789;SDS011;378;48.844;9.156;2023-07-08T05:52:26;12.88;;;6.00;;
789;SDS011;378;48.844;9.156;2023-07-08T05:54:53;13.88;;;6.70;;
789;SDS011;378;48.844;9.156;2023-07-08T05:57:20;12.60;;;6.05;;
789;SDS011;378;48.844;9.156;2023-07-08T05:59:49;12.30;;;6.40;;
789;SDS011;378;48.844;9.156;2023-07-08T06:02:17;13.98;;;6.43;;
789;SDS011;378;48.844;9.156;2023-07-08T06:04:46;10.52;;;5.47;;
789;SDS011;378;48.844;9.156;2023-07-08T06:07:13;12.52;;;5.85;;
789;SDS011;378;48.844;9.156;2023-07-08T06:09:41;11.98;;;6.50;;
789;SDS011;378;48.844;9.156;2023-07-08T06:12:08;11.88;;;5.70;;
789;SDS011;378;48.844;9.156;2023-07-08T06:14:35;9.77;;;5.50;;
789;SDS011;378;48.844;9.156;2023-07-08T06:17:05;12.30;;;6.32;;
789;SDS011;378;48.844;9.156;2023-07-08T06:19:32;12.63;;;6.03;;
789;SDS011;378;48.844;9.156;2023-07-08T06:21:59;10.88;;;5.70;;
789;SDS011;378;48.844;9.156;2023-07-08T06:24:26;10.35;;;6.07;;
789;SDS011;378;48.844;9.156;2023-07-08T06:26:53;10.77;;;5.70;;
789;SDS011;378;48.844;9.156;2023-07-08T06:29:20;12.85;;;5.45;;
789;SDS011;378;48.844;9.156;2023-07-08T06:31:47;8.80;;;5.70;;
789;SDS011;378;48.844;9.156;2023-07-08T06:34:15;10.55;;;5.93;;
789;SDS011;378;48.844;9.156;2023-07-08T06:36:42;8.77;;;5.30;;
789;SDS011;378;48.844;9.156;2023-07-08T06:39:09;8.98;;;5.45;;
789;SDS011;378;48.844;9.156;2023-07-08T06:41:36;9.82;;;5.40;;
789;SDS011;378;48.844;9.156;2023-07-08T06:44:03;9.38;;;5.88;;
789;SDS011;378;48.844;9.156;2023-07-08T06:46:30;8.43;;;5.07;;
789;SDS011;378;48.844;9.156;2023-07-08T06:48:57;9.38;;;4.80;;
789;SDS011;378;48.844;9.156;2023-07-08T06:51:26;9.07;;;5.00;;
789;SDS011;378;48.844;9.156;2023-07-08T06:53:53;10.35;;;4.80;;
789;SDS011;378;48.844;9.156;2023-07-08T06:56:21;9.25;;;4.15;;
789;SDS011;378;48.844;9.156;2023-07-08T06:58:48;11.57;;;4.53;;
789;SDS011;378;48.844;9.156;2023-07-08T07:01:14;8.55;;;4.07;;
789;SDS011;378;48.844;9.156;2023-07-08T07:03:42;8.20;;;4.50;;
789;SDS011;378;48.844;9.156;2023-07-08T07:06:09;7.60;;;4.13;;
789;SDS011;378;48.844;9.156;2023-07-08T07:08:38;5.55;;;3.65;;
789;SDS011;378;48.844;9.156;2023-07-08T07:11:04;12.50;;;4.32;;
789;SDS011;378;48.844;9.156;2023-07-08T07:13:31;10.80;;;4.45;;
789;SDS011;378;48.844;9.156;2023-07-08T07:15:58;13.60;;;4.47;;
789;SDS011;378;48.844;9.156;2023-07-08T07:18:25;8.68;;;4.50;;
789;SDS011;378;48.844;9.156;2023-07-08T07:20:53;7.43;;;4.78;;
789;SDS011;378;48.844;9.156;2023-07-08T07:23:20;8.50;;;4.43;;
789;SDS011;378;48.844;9.156;2023-07-08T07:25:49;8.77;;;4.53;;
789;SDS011;378;48.844;9.156;2023-07-08T07:28:16;12.02;;;4.75;;
789;SDS011;378;48.844;9.156;2023-07-08T07:30:43;15.07;;;4.60;;
789;SDS011;378;48.844;9.156;2023-07-08T07:33:10;9.07;;;4.88;;
789;SDS011;378;48.844;9.156;2023-07-08T07:35:41;11.38;;;4.80;;
789;SDS011;378;48.844;9.156;2023-07-08T07:38:08;7.85;;;4.65;;
789;SDS011;378;48.844;9.156;2023-07-08T07:40:35;10.73;;;5.47;;
789;SDS011;378;48.844;9.156;2023-07-08T07:43:03;12.48;;;5.25;;
789;SDS011;378;48.844;9.156;2023-07-08T07:45:30;7.50;;;4.22;;
789;SDS011;378;48.844;9.156;2023-07-08T07:47:57;8.65;;;5.07;;
789;SDS011;378;48.844;9.156;2023-07-08T07:50:24;10.88;;;5.50;;
789;SDS011;378;48.844;9.156;2023-07-08T07:52:51;8.10;;;4.82;;
789;SDS011;378;48.844;9.156;2023-07-08T07:55:18;12.60;;;5.72;;
789;SDS011;378;48.844;9.156;2023-07-08T07:57:44;11.23;;;5.32;;
789;SDS011;378;48.844;9.156;2023-07-08T08:00:13;11.55;;;5.25;;
789;SDS011;378;48.844;9.156;2023-07-08T08:02:40;20.90;;;8.02;;
789;SDS011;378;48.844;9.156;2023-07-08T08:05:08;12.38;;;5.00;;
789;SDS011;378;48.844;9.156;2023-07-08T08:07:34;7.53;;;4.82;;
789;SDS011;378;48.844;9.156;2023-07-08T08:10:02;8.20;;;4.75;;
789;SDS011;378;48.844;9.156;2023-07-08T08:12:29;8.98;;;4.95;;
789;SDS011;378;48.844;9.156;2023-07-08T08:14:56;9.27;;;5.03;;
789;SDS011;378;48.844;9.156;2023-07-08T08:17:24;8.82;;;4.80;;
789;SDS011;378;48.844;9.156;2023-07-08T08:19:51;11.05;;;5.10;;
789;SDS011;378;48.844;9.156;2023-07-08T08:22:18;8.73;;;4.70;;
789;SDS011;378;48.844;9.156;2023-07-08T08:24:46;10.30;;;4.95;;
789;SDS011;378;48.844;9.156;2023-07-08T08:27:13;9.05;;;4.78;;
789;SDS011;378;48.844;9.156;2023-07-08T08:29:40;9.05;;;4.32;;
789;SDS011;378;48.844;9.156;2023-07-08T08:32:07;8.75;;;3.92;;
789;SDS011;378;48.844;9.156;2023-07-08T08:34:35;7.30;;;4.35;;
789;SDS011;378;48.844;9.156;2023-07-08T08:37:02;7.30;;;4.07;;
789;SDS011;378;48.844;9.156;2023-07-08T08:39:29;9.65;;;4.10;;
789;SDS011;378;48.844;9.156;2023-07-08T08:41:56;9.32;;;3.90;;
789;SDS011;378;48.844;9.156;2023-07-08T08:44:25;6.65;;;4.05;;
789;SDS011;378;48.844;9.156;2023-07-08T08:46:57;6.00;;;3.75;;
789;SDS011;378;48.844;9.156;2023-07-08T08:49:31;11.98;;;4.35;;
789;SDS011;378;48.844;9.156;2023-07-08T08:52:05;6.45;;;3.80;;
789;SDS011;378;48.844;9.156;2023-07-08T08:54:33;9.90;;;3.85;;
789;SDS011;378;48.844;9.156;2023-07-08T08:57:02;5.53;;;3.75;;
789;SDS011;378;48.844;9.156;2023-07-08T08:59:42;6.60;;;3.70;;
789;SDS011;378;48.844;9.156;2023-07-08T09:02:16;6.18;;;3.70;;
789;SDS011;378;48.844;9.156;2023-07-08T09:04:51;7.78;;;4.20;;
789;SDS011;378;48.844;9.156;2023-07-08T09:07:19;5.97;;;3.20;;
789;SDS011;378;48.844;9.156;2023-07-08T09:09:50;12.57;;;3.50;;
789;SDS011;378;48.844;9.156;2023-07-08T09:12:25;5.65;;;3.45;;
789;SDS011;378;48.844;9.156;2023-07-08T09:14:54;8.95;;;2.85;;
789;SDS011;378;48.844;9.156;2023-07-08T09:17:23;5.30;;;2.33;;
789;SDS011;378;48.844;9.156;2023-07-08T09:19:57;4.35;;;2.30;;
789;SDS011;378;48.844;9.156;2023-07-08T09:22:31;4.47;;;2.15;;
789;SDS011;378;48.844;9.156;2023-07-08T09:25:03;4.40;;;1.98;;
789;SDS011;378;48.844;9.156;2023-07-08T09:27:34;3.35;;;1.42;;
789;SDS011;378;48.844;9.156;2023-07-08T09:30:01;4.05;;;1.65;;
789;SDS011;378;48.844;9.156;2023-07-08T09:32:28;6.47;;;1.55;;
789;SDS011;378;48.844;9.156;2023-07-08T09:35:02;3.85;;;1.40;;
789;SDS011;378;48.844;9.156;2023-07-08T09:37:32;4.25;;;1.65;;
789;SDS011;378;48.844;9.156;2023-07-08T09:40:00;2.67;;;1.30;;
789;SDS011;378;48.844;9.156;2023-07-08T09:42:31;3.80;;;1.50;;
789;SDS011;378;48.844;9.156;2023-07-08T09:45:01;2.75;;;1.50;;
789;SDS011;378;48.844;9.156;2023-07-08T09:47:32;2.60;;;1.38;;
789;SDS011;378;48.844;9.156;2023-07-08T09:50:03;6.10;;;1.60;;
789;SDS011;378;48.844;9.156;2023-07-08T09:52:42;2.35;;;1.50;;
789;SDS011;378;48.844;9.156;2023-07-08T09:55:10;2.80;;;1.60;;
789;SDS011;378;48.844;9.156;2023-07-08T09:57:37;4.30;;;1.83;;
789;SDS011;378;48.844;9.156;2023-07-08T10:00:07;4.38;;;1.75;;
789;SDS011;378;48.844;9.156;2023-07-08T10:02:38;4.65;;;1.90;;
789;SDS011;378;48.844;9.156;2023-07-08T10:05:11;2.83;;;1.80;;
789;SDS011;378;48.844;9.156;2023-07-08T10:07:40;5.63;;;1.90;;
789;SDS011;378;48.844;9.156;2023-07-08T10:10:10;3.55;;;1.85;;
789;SDS011;378;48.844;9.156;2023-07-08T10:12:41;12.93;;;2.25;;
789;SDS011;378;48.844;9.156;2023-07-08T10:15:18;4.28;;;1.77;;
789;SDS011;378;48.844;9.156;2023-07-08T10:17:48;4.55;;;1.77;;
789;SDS011;378;48.844;9.156;2023-07-08T10:20:15;3.45;;;1.77;;
789;SDS011;378;48.844;9.156;2023-07-08T10:22:43;3.35;;;1.70;;
789;SDS011;378;48.844;9.156;2023-07-08T10:25:24;3.97;;;1.65;;
789;SDS011;378;48.844;9.156;2023-07-08T10:27:57;3.80;;;1.85;;
789;SDS011;378;48.844;9.156;2023-07-08T10:30:29;3.45;;;1.85;;
789;SDS011;378;48.844;9.156;2023-07-08T10:33:06;4.32;;;1.90;;
789;SDS011;378;48.844;9.156;2023-07-08T10:35:45;6.40;;;1.90;;
789;SDS011;378;48.844;9.156;2023-07-08T10:38:39;5.82;;;2.00;;
789;SDS011;378;48.844;9.156;2023-07-08T10:41:20;3.58;;;2.17;;
789;SDS011;378;48.844;9.156;2023-07-08T10:43:59;5.50;;;2.50;;
789;SDS011;378;48.844;9.156;2023-07-08T10:46:38;8.48;;;2.00;;
789;SDS011;378;48.844;9.156;2023-07-08T10:49:17;6.60;;;2.80;;
789;SDS011;378;48.844;9.156;2023-07-08T10:51:55;7.53;;;3.65;;
789;SDS011;378;48.844;9.156;2023-07-08T10:54:38;6.88;;;3.80;;
789;SDS011;378;48.844;9.156;2023-07-08T10:57:38;8.35;;;3.55;;
789;SDS011;378;48.844;9.156;2023-07-08T11:00:19;7.25;;;3.67;;
789;SDS011;378;48.844;9.156;2023-07-08T11:03:14;6.18;;;3.40;;
789;SDS011;378;48.844;9.156;2023-07-08T11:05:55;6.07;;;3.33;;
789;SDS011;378;48.844;9.156;2023-07-08T11:08:26;5.75;;;3.08;;
789;SDS011;378;48.844;9.156;2023-07-08T11:10:56;6.32;;;3.30;;
789;SDS011;378;48.844;9.156;2023-07-08T11:13:29;6.70;;;3.15;;
789;SDS011;378;48.844;9.156;2023-07-08T11:16:00;5.63;;;2.60;;
789;SDS011;378;48.844;9.156;2023-07-08T11:18:33;7.80;;;3.10;;
789;SDS011;378;48.844;9.156;2023-07-08T11:21:06;9.30;;;2.75;;
789;SDS011;378;48.844;9.156;2023-07-08T11:23:38;6.93;;;2.92;;
789;SDS011;378;48.844;9.156;2023-07-08T11:26:16;10.15;;;2.47;;
789;SDS011;378;48.844;9.156;2023-07-08T11:28:47;6.60;;;2.85;;
789;SDS011;378;48.844;9.156;2023-07-08T11:31:17;3.95;;;2.60;;
789;SDS011;378;48.844;9.156;2023-07-08T11:33:44;6.75;;;2.72;;
789;SDS011;378;48.844;9.156;2023-07-08T11:36:12;6.30;;;2.38;;
789;SDS011;378;48.844;9.156;2023-07-08T11:38:46;5.22;;;2.50;;
789;SDS011;378;48.844;9.156;2023-07-08T11:41:15;4.30;;;2.28;;
789;SDS011;378;48.844;9.156;2023-07-08T11:43:45;6.35;;;2.55;;
789;SDS011;378;48.844;9.156;2023-07-08T11:46:17;6.40;;;2.30;;
789;SDS011;378;48.844;9.156;2023-07-08T11:48:51;5.60;;;2.67;;
789;SDS011;378;48.844;9.156;2023-07-08T11:51:19;10.02;;;2.70;;
789;SDS011;378;48.844;9.156;2023-07-08T11:53:49;8.60;;;2.65;;
789;SDS011;378;48.844;9.156;2023-07-08T11:56:24;5.22;;;2.42;;
789;SDS011;378;48.844;9.156;2023-07-08T12:01:46;7.72;;;2.53;;
789;SDS011;378;48.844;9.156;2023-07-08T12:04:22;4.47;;;2.58;;
789;SDS011;378;48.844;9.156;2023-07-08T12:06:53;4.65;;;2.40;;
789;SDS011;378;48.844;9.156;2023-07-08T12:09:48;5.28;;;2.63;;
789;SDS011;378;48.844;9.156;2023-07-08T12:12:25;5.82;;;2.38;;
789;SDS011;378;48.844;9.156;2023-07-08T12:15:00;9.75;;;2.90;;
789;SDS011;378;48.844;9.156;2023-07-08T12:17:35;4.95;;;2.55;;
789;SDS011;378;48.844;9.156;2023-07-08T12:20:03;7.38;;;2.72;;
789;SDS011;378;48.844;9.156;2023-07-08T12:22:39;6.03;;;2.28;;
789;SDS011;378;48.844;9.156;2023-07-08T12:25:07;4.32;;;2.22;;
789;SDS011;378;48.844;9.156;2023-07-08T12:27:38;6.00;;;2.60;;
789;SDS011;378;48.844;9.156;2023-07-08T12:30:07;4.65;;;2.17;;
789;SDS011;378;48.844;9.156;2023-07-08T12:32:36;8.48;;;2.10;;
789;SDS011;378;48.844;9.156;2023-07-08T12:35:03;5.65;;;2.28;;
789;SDS011;378;48.844;9.156;2023-07-08T12:37:31;2.83;;;1.70;;
789;SDS011;378;48.844;9.156;2023-07-08T12:39:58;6.07;;;2.28;;
789;SDS011;378;48.844;9.156;2023-07-08T12:42:31;4.32;;;2.28;;
789;SDS011;378;48.844;9.156;2023-07-08T12:44:58;8.52;;;2.25;;
789;SDS011;378;48.844;9.156;2023-07-08T12:47:26;5.07;;;2.03;;
789;SDS011;378;48.844;9.156;2023-07-08T12:49:53;5.95;;;2.20;;
789;SDS011;378;48.844;9.156;2023-07-08T12:52:20;7.20;;;2.28;;
789;SDS011;378;48.844;9.156;2023-07-08T12:54:48;9.27;;;2.20;;
789;SDS011;378;48.844;9.156;2023-07-08T12:57:15;5.90;;;2.42;;
789;SDS011;378;48.844;9.156;2023-07-08T12:59:43;5.32;;;2.50;;
789;SDS011;378;48.844;9.156;2023-07-08T13:02:14;4.03;;;2.28;;
789;SDS011;378;48.844;9.156;2023-07-08T13:04:44;5.03;;;2.28;;
789;SDS011;378;48.844;9.156;2023-07-08T13:07:16;3.65;;;2.25;;
789;SDS011;378;48.844;9.156;2023-07-08T13:09:50;4.50;;;2.30;;
789;SDS011;378;48.844;9.156;2023-07-08T13:12:18;3.63;;;2.05;;
789;SDS011;378;48.844;9.156;2023-07-08T13:14:49;4.90;;;2.20;;
789;SDS011;378;48.844;9.156;2023-07-08T13:17:19;5.07;;;2.25;;
789;SDS011;378;48.844;9.156;2023-07-08T13:19:47;2.38;;;1.90;;
789;SDS011;378;48.844;9.156;2023-07-08T13:22:15;4.97;;;1.95;;
789;SDS011;378;48.844;9.156;2023-07-08T13:24:44;4.30;;;2.15;;
789;SDS011;378;48.844;9.156;2023-07-08T13:27:20;5.88;;;2.00;;
789;SDS011;378;48.844;9.156;2023-07-08T13:29:50;4.05;;;2.08;;
789;SDS011;378;48.844;9.156;2023-07-08T13:32:17;4.95;;;2.40;;
789;SDS011;378;48.844;9.156;2023-07-08T13:34:44;3.35;;;2.00;;
789;SDS011;378;48.844;9.156;2023-07-08T13:37:16;4.82;;;1.95;;
789;SDS011;378;48.844;9.156;2023-07-08T13:39:46;9.70;;;2.75;;
789;SDS011;378;48.844;9.156;2023-07-08T13:42:13;5.93;;;2.13;;
789;SDS011;378;48.844;9.156;2023-07-08T13:44:43;4.32;;;2.10;;
789;SDS011;378;48.844;9.156;2023-07-08T13:47:28;4.28;;;2.10;;
789;SDS011;378;48.844;9.156;2023-07-08T13:49:58;5.32;;;1.90;;
789;SDS011;378;48.844;9.156;2023-07-08T13:52:31;6.60;;;2.33;;
789;SDS011;378;48.844;9.156;2023-07-08T13:54:59;4.63;;;2.03;;
789;SDS011;378;48.844;9.156;2023-07-08T13:57:29;5.75;;;1.75;;
789;SDS011;378;48.844;9.156;2023-07-08T13:59:58;4.65;;;2.03;;
789;SDS011;378;48.844;9.156;2023-07-08T14:02:26;6.18;;;2.13;;
789;SDS011;378;48.844;9.156;2023-07-08T14:04:55;5.80;;;2.05;;
789;SDS011;378;48.844;9.156;2023-07-08T14:07:25;5.57;;;2.17;;
789;SDS011;378;48.844;9.156;2023-07-08T14:09:58;6.95;;;2.30;;
789;SDS011;378;48.844;9.156;2023-07-08T14:12:25;5.47;;;2.17;;
789;SDS011;378;48.844;9.156;2023-07-08T14:14:52;4.85;;;2.00;;
789;SDS011;378;48.844;9.156;2023-07-08T14:17:21;15.40;;;2.13;;
789;SDS011;378;48.844;9.156;2023-07-08T14:19:51;6.82;;;2.40;;
789;SDS011;378;48.844;9.156;2023-07-08T14:22:23;7.57;;;2.10;;
789;SDS011;378;48.844;9.156;2023-07-08T14:24:51;3.88;;;2.10;;
789;SDS011;378;48.844;9.156;2023-07-08T14:27:19;5.68;;;1.98;;
789;SDS011;378;48.844;9.156;2023-07-08T14:29:46;3.20;;;1.80;;
789;SDS011;378;48.844;9.156;2023-07-08T14:32:15;6.18;;;1.90;;
789;SDS011;378;48.844;9.156;2023-07-08T14:34:48;6.45;;;2.15;;
789;SDS011;378;48.844;9.156;2023-07-08T14:37:18;4.88;;;2.00;;
789;SDS011;378;48.844;9.156;2023-07-08T14:39:46;5.95;;;2.03;;
789;SDS011;378;48.844;9.156;2023-07-08T14:42:14;4.88;;;1.90;;
789;SDS011;378;48.844;9.156;2023-07-08T14:44:43;4.28;;;1.77;;
789;SDS011;378;48.844;9.156;2023-07-08T14:47:12;6.45;;;2.05;;
789;SDS011;378;48.844;9.156;2023-07-08T14:49:40;7.57;;;2.20;;
789;SDS011;378;48.844;9.156;2023-07-08T14:52:07;4.57;;;2.17;;
789;SDS011;378;48.844;9.156;2023-07-08T14:54:35;7.78;;;2.20;;
789;SDS011;378;48.844;9.156;2023-07-08T14:57:03;5.35;;;1.88;;
789;SDS011;378;48.844;9.156;2023-07-08T14:59:32;3.97;;;2.22;;
789;SDS011;378;48.844;9.156;2023-07-08T15:02:01;5.45;;;2.30;;
789;SDS011;378;48.844;9.156;2023-07-08T15:04:38;5.60;;;2.00;;
789;SDS011;378;48.844;9.156;2023-07-08T15:07:07;7.18;;;1.85;;
789;SDS011;378;48.844;9.156;2023-07-08T15:09:35;7.38;;;1.80;;
789;SDS011;378;48.844;9.156;2023-07-08T15:12:03;6.57;;;1.85;;
789;SDS011;378;48.844;9.156;2023-07-08T15:14:31;4.88;;;1.90;;
789;SDS011;378;48.844;9.156;2023-07-08T15:16:58;2.78;;;1.80;;
789;SDS011;378;48.844;9.156;2023-07-08T15:19:25;4.25;;;2.05;;
789;SDS011;378;48.844;9.156;2023-07-08T15:21:53;3.42;;;1.70;;
789;SDS011;378;48.844;9.156;2023-07-08T15:24:20;6.28;;;2.05;;
789;SDS011;378;48.844;9.156;2023-07-08T15:26:49;5.72;;;2.20;;
789;SDS011;378;48.844;9.156;2023-07-08T15:29:19;6.00;;;2.20;;
789;SDS011;378;48.844;9.156;2023-07-08T15:31:47;8.20;;;2.03;;
789;SDS011;378;48.844;9.156;2023-07-08T15:34:14;5.15;;;2.30;;
789;SDS011;378;48.844;9.156;2023-07-08T15:36:43;5.18;;;2.30;;
789;SDS011;378;48.844;9.156;2023-07-08T15:39:10;5.15;;;1.98;;
789;SDS011;378;48.844;9.156;2023-07-08T15:41:38;4.07;;;2.03;;
789;SDS011;378;48.844;9.156;2023-07-08T15:44:07;3.53;;;1.95;;
789;SDS011;378;48.844;9.156;2023-07-08T15:46:37;9.40;;;2.08;;
789;SDS011;378;48.844;9.156;2023-07-08T15:49:12;6.70;;;2.20;;
789;SDS011;378;48.844;9.156;2023-07-08T15:51:41;5.05;;;2.28;;
789;SDS011;378;48.844;9.156;2023-07-08T15:54:09;6.55;;;1.90;;
789;SDS011;378;48.844;9.156;2023-07-08T15:56:36;6.97;;;1.90;;